sensor_id;sensor_type;location;lat;lon;timestamp;pressure;altitude;pressure_sealevel;temperature;humidity
35918;BME280;22011;59.912;30.300;2023-02-20T00:00:31;99932.78;;;-4.33;63.94
35918;BME280;22011;59.912;30.300;2023-02-20T00:02:59;99920.69;;;-4.34;64.20
35918;BME280;22011;59.912;30.300;2023-02-20T00:05:27;99921.63;;;-4.35;64.43
35918;BME280;22011;59.912;30.300;2023-02-20T00:07:56;99932.78;;;-4.33;63.92
35918;BME280;22011;59.912;30.300;2023-02-20T00:10:23;99920.88;;;-4.37;64.24
35918;BME280;22011;59.912;30.300;2023-02-20T00:12:51;99924.59;;;-4.41;63.23
35918;BME280;22011;59.912;30.300;2023-02-20T00:15:20;99926.53;;;-4.44;63.96
35918;BME280;22011;59.912;30.300;2023-02-20T00:17:48;99933.00;;;-4.51;64.03
35918;BME280;22011;59.912;30.300;2023-02-20T00:20:17;99933.09;;;-4.53;64.71
35918;BME280;22011;59.912;30.300;2023-02-20T00:22:45;99935.06;;;-4.56;64.37
35918;BME280;22011;59.912;30.300;2023-02-20T00:25:16;99939.22;;;-4.54;64.30
35918;BME280;22011;59.912;30.300;2023-02-20T00:27:44;99935.06;;;-4.56;63.62
35918;BME280;22011;59.912;30.300;2023-02-20T00:30:15;99941.56;;;-4.49;64.17
35918;BME280;22011;59.912;30.300;2023-02-20T00:32:43;99940.06;;;-4.53;63.93
35918;BME280;22011;59.912;30.300;2023-02-20T00:35:10;99938.31;;;-4.53;64.42
35918;BME280;22011;59.912;30.300;2023-02-20T00:37:38;99954.00;;;-4.54;64.46
35918;BME280;22011;59.912;30.300;2023-02-20T00:40:07;99953.81;;;-4.51;64.30
35918;BME280;22011;59.912;30.300;2023-02-20T00:42:36;99961.78;;;-4.54;63.98
35918;BME280;22011;59.912;30.300;2023-02-20T00:45:05;99975.97;;;-4.60;63.13
35918;BME280;22011;59.912;30.300;2023-02-20T00:47:33;99974.47;;;-4.64;63.92
35918;BME280;22011;59.912;30.300;2023-02-20T00:50:02;99974.84;;;-4.70;64.15
35918;BME280;22011;59.912;30.300;2023-02-20T00:52:30;99974.34;;;-4.77;64.52
35918;BME280;22011;59.912;30.300;2023-02-20T00:54:57;99965.81;;;-4.79;64.72
35918;BME280;22011;59.912;30.300;2023-02-20T00:57:25;99974.34;;;-4.77;64.41
35918;BME280;22011;59.912;30.300;2023-02-20T00:59:55;99980.28;;;-4.75;64.40
35918;BME280;22011;59.912;30.300;2023-02-20T01:02:23;99988.19;;;-4.76;63.46
35918;BME280;22011;59.912;30.300;2023-02-20T01:04:50;99997.00;;;-4.79;63.91
35918;BME280;22011;59.912;30.300;2023-02-20T01:07:18;100009.22;;;-4.81;63.41
35918;BME280;22011;59.912;30.300;2023-02-20T01:09:46;100001.59;;;-4.84;63.16
35918;BME280;22011;59.912;30.300;2023-02-20T01:12:15;99997.25;;;-4.83;62.95
35918;BME280;22011;59.912;30.300;2023-02-20T01:14:42;99992.13;;;-4.85;63.85
35918;BME280;22011;59.912;30.300;2023-02-20T01:17:12;100000.00;;;-4.86;65.27
35918;BME280;22011;59.912;30.300;2023-02-20T01:19:40;100002.69;;;-4.88;64.36
35918;BME280;22011;59.912;30.300;2023-02-20T01:22:08;99995.91;;;-4.90;64.67
35918;BME280;22011;59.912;30.300;2023-02-20T01:24:35;99998.69;;;-4.94;64.89
35918;BME280;22011;59.912;30.300;2023-02-20T01:27:03;100004.81;;;-4.95;65.31
35918;BME280;22011;59.912;30.300;2023-02-20T01:29:31;99999.94;;;-5.01;65.32
35918;BME280;22011;59.912;30.300;2023-02-20T01:31:58;99992.75;;;-4.96;65.37
35918;BME280;22011;59.912;30.300;2023-02-20T01:34:27;99989.13;;;-4.93;64.76
35918;BME280;22011;59.912;30.300;2023-02-20T01:36:55;99986.44;;;-4.91;64.87
35918;BME280;22011;59.912;30.300;2023-02-20T01:39:27;99988.03;;;-4.89;64.87
35918;BME280;22011;59.912;30.300;2023-02-20T01:41:58;99980.91;;;-4.85;64.31
35918;BME280;22011;59.912;30.300;2023-02-20T01:44:27;99982.66;;;-4.86;64.61
35918;BME280;22011;59.912;30.300;2023-02-20T01:46:56;99975.88;;;-4.88;65.25
35918;BME280;22011;59.912;30.300;2023-02-20T01:49:31;99970.69;;;-4.88;65.50
35918;BME280;22011;59.912;30.300;2023-02-20T01:52:07;99981.81;;;-4.86;64.64
35918;BME280;22011;59.912;30.300;2023-02-20T01:54:38;99985.34;;;-4.87;64.44
35918;BME280;22011;59.912;30.300;2023-02-20T01:57:13;99988.78;;;-4.87;64.68
35918;BME280;22011;59.912;30.300;2023-02-20T01:59:43;99988.47;;;-4.97;64.99
35918;BME280;22011;59.912;30.300;2023-02-20T02:02:13;99998.66;;;-4.78;65.71
35918;BME280;22011;59.912;30.300;2023-02-20T02:04:43;100003.88;;;-4.94;65.66
35918;BME280;22011;59.912;30.300;2023-02-20T02:07:11;100004.97;;;-4.98;64.96
35918;BME280;22011;59.912;30.300;2023-02-20T02:09:44;100000.63;;;-4.97;63.97
35918;BME280;22011;59.912;30.300;2023-02-20T02:12:14;100005.41;;;-5.05;63.50
35918;BME280;22011;59.912;30.300;2023-02-20T02:14:41;100005.06;;;-5.15;63.61
35918;BME280;22011;59.912;30.300;2023-02-20T02:17:24;99999.53;;;-5.09;65.09
35918;BME280;22011;59.912;30.300;2023-02-20T02:23:40;100000.03;;;-5.02;65.60
35918;BME280;22011;59.912;30.300;2023-02-20T02:26:35;99991.31;;;-5.01;65.97
35918;BME280;22011;59.912;30.300;2023-02-20T02:32:41;99999.25;;;-4.88;64.27
35918;BME280;22011;59.912;30.300;2023-02-20T02:35:29;100004.06;;;-4.97;64.09
35918;BME280;22011;59.912;30.300;2023-02-20T02:38:11;100012.19;;;-5.03;63.44
35918;BME280;22011;59.912;30.300;2023-02-20T02:40:44;100011.03;;;-5.13;63.34
35918;BME280;22011;59.912;30.300;2023-02-20T02:43:18;100020.81;;;-5.18;63.71
35918;BME280;22011;59.912;30.300;2023-02-20T02:45:52;100018.66;;;-5.25;65.08
35918;BME280;22011;59.912;30.300;2023-02-20T02:48:26;100021.19;;;-5.24;64.84
35918;BME280;22011;59.912;30.300;2023-02-20T02:50:57;100030.72;;;-5.24;64.04
35918;BME280;22011;59.912;30.300;2023-02-20T02:53:28;100042.97;;;-5.27;64.53
35918;BME280;22011;59.912;30.300;2023-02-20T02:55:56;100033.16;;;-5.37;64.29
35918;BME280;22011;59.912;30.300;2023-02-20T02:58:43;100033.16;;;-5.37;64.10
35918;BME280;22011;59.912;30.300;2023-02-20T03:01:11;100029.72;;;-5.38;64.15
35918;BME280;22011;59.912;30.300;2023-02-20T03:03:43;100034.06;;;-5.38;64.49
35918;BME280;22011;59.912;30.300;2023-02-20T03:06:15;100042.94;;;-5.42;65.21
35918;BME280;22011;59.912;30.300;2023-02-20T03:08:50;100049.97;;;-5.44;65.75
35918;BME280;22011;59.912;30.300;2023-02-20T03:11:24;100050.81;;;-5.44;65.79
35918;BME280;22011;59.912;30.300;2023-02-20T03:13:58;100053.09;;;-5.38;66.12
35918;BME280;22011;59.912;30.300;2023-02-20T03:16:55;100068.66;;;-5.38;66.43
35918;BME280;22011;59.912;30.300;2023-02-20T03:19:26;100063.72;;;-5.42;66.17
35918;BME280;22011;59.912;30.300;2023-02-20T03:21:55;100061.97;;;-5.42;66.47
35918;BME280;22011;59.912;30.300;2023-02-20T03:24:28;100059.13;;;-5.37;66.10
35918;BME280;22011;59.912;30.300;2023-02-20T03:26:58;100059.88;;;-5.35;66.00
35918;BME280;22011;59.912;30.300;2023-02-20T03:29:31;100051.16;;;-5.34;66.38
35918;BME280;22011;59.912;30.300;2023-02-20T03:32:04;100049.31;;;-5.32;65.49
35918;BME280;22011;59.912;30.300;2023-02-20T03:34:52;100053.50;;;-5.30;64.78
35918;BME280;22011;59.912;30.300;2023-02-20T03:37:39;100061.22;;;-5.28;64.23
35918;BME280;22011;59.912;30.300;2023-02-20T03:40:28;100058.88;;;-5.33;64.09
35918;BME280;22011;59.912;30.300;2023-02-20T03:43:17;100059.03;;;-5.36;65.16
35918;BME280;22011;59.912;30.300;2023-02-20T03:45:58;100048.66;;;-5.36;64.85
35918;BME280;22011;59.912;30.300;2023-02-20T03:48:32;100059.72;;;-5.32;64.77
35918;BME280;22011;59.912;30.300;2023-02-20T03:51:02;100060.53;;;-5.32;64.45
35918;BME280;22011;59.912;30.300;2023-02-20T03:53:39;100061.47;;;-5.33;64.72
35918;BME280;22011;59.912;30.300;2023-02-20T03:56:11;100062.47;;;-5.35;64.60
35918;BME280;22011;59.912;30.300;2023-02-20T03:58:45;100056.69;;;-5.40;64.24
35918;BME280;22011;59.912;30.300;2023-02-20T04:01:16;100060.34;;;-5.44;65.07
35918;BME280;22011;59.912;30.300;2023-02-20T04:03:46;100069.81;;;-5.43;65.54
35918;BME280;22011;59.912;30.300;2023-02-20T04:06:16;100062.19;;;-5.46;65.41
35918;BME280;22011;59.912;30.300;2023-02-20T04:08:49;100062.03;;;-5.43;65.95
35918;BME280;22011;59.912;30.300;2023-02-20T04:11:23;100063.56;;;-5.39;64.75
35918;BME280;22011;59.912;30.300;2023-02-20T04:13:53;100055.94;;;-5.42;64.70
35918;BME280;22011;59.912;30.300;2023-02-20T04:16:22;100046.63;;;-5.46;64.46
35918;BME280;22011;59.912;30.300;2023-02-20T04:18:50;100045.94;;;-5.50;64.04
35918;BME280;22011;59.912;30.300;2023-02-20T04:21:20;100055.34;;;-5.47;63.95
35918;BME280;22011;59.912;30.300;2023-02-20T04:23:58;100052.91;;;-5.50;64.15
35918;BME280;22011;59.912;30.300;2023-02-20T04:26:29;100058.31;;;-5.55;65.45
35918;BME280;22011;59.912;30.300;2023-02-20T04:28:57;100065.44;;;-5.58;64.80
35918;BME280;22011;59.912;30.300;2023-02-20T04:31:26;100067.03;;;-5.56;64.52
35918;BME280;22011;59.912;30.300;2023-02-20T04:33:54;100062.00;;;-5.59;65.19
35918;BME280;22011;59.912;30.300;2023-02-20T04:36:23;100055.13;;;-5.60;65.02
35918;BME280;22011;59.912;30.300;2023-02-20T04:38:55;100066.34;;;-5.60;65.74
35918;BME280;22011;59.912;30.300;2023-02-20T04:41:25;100067.13;;;-5.57;65.96
35918;BME280;22011;59.912;30.300;2023-02-20T04:43:55;100072.16;;;-5.54;65.43
35918;BME280;22011;59.912;30.300;2023-02-20T04:46:36;100065.03;;;-5.51;64.80
35918;BME280;22011;59.912;30.300;2023-02-20T04:49:03;100055.66;;;-5.53;65.23
35918;BME280;22011;59.912;30.300;2023-02-20T04:51:31;100058.16;;;-5.52;64.43
35918;BME280;22011;59.912;30.300;2023-02-20T04:53:59;100071.38;;;-5.56;64.69
35918;BME280;22011;59.912;30.300;2023-02-20T04:56:26;100074.97;;;-5.59;65.03
35918;BME280;22011;59.912;30.300;2023-02-20T04:58:56;100081.84;;;-5.58;65.87
35918;BME280;22011;59.912;30.300;2023-02-20T05:01:24;100068.28;;;-5.63;65.14
35918;BME280;22011;59.912;30.300;2023-02-20T05:03:51;100072.47;;;-5.61;65.80
35918;BME280;22011;59.912;30.300;2023-02-20T05:06:19;100070.63;;;-5.58;65.06
35918;BME280;22011;59.912;30.300;2023-02-20T05:08:46;100067.13;;;-5.57;64.54
35918;BME280;22011;59.912;30.300;2023-02-20T05:11:14;100070.88;;;-5.63;64.73
35918;BME280;22011;59.912;30.300;2023-02-20T05:13:41;100076.28;;;-5.68;64.68
35918;BME280;22011;59.912;30.300;2023-02-20T05:16:10;100092.03;;;-5.71;64.41
35918;BME280;22011;59.912;30.300;2023-02-20T05:18:38;100088.91;;;-5.77;64.63
35918;BME280;22011;59.912;30.300;2023-02-20T05:21:06;100083.78;;;-5.79;64.84
35918;BME280;22011;59.912;30.300;2023-02-20T05:23:56;100087.84;;;-5.73;64.63
35918;BME280;22011;59.912;30.300;2023-02-20T05:26:24;100092.41;;;-5.78;64.76
35918;BME280;22011;59.912;30.300;2023-02-20T05:28:51;100096.53;;;-5.74;64.98
35918;BME280;22011;59.912;30.300;2023-02-20T05:31:20;100107.28;;;-5.65;64.98
35918;BME280;22011;59.912;30.300;2023-02-20T05:33:48;100100.25;;;-5.63;65.59
35918;BME280;22011;59.912;30.300;2023-02-20T05:36:16;100101.84;;;-5.60;65.03
35918;BME280;22011;59.912;30.300;2023-02-20T05:38:43;100104.38;;;-5.58;64.34
35918;BME280;22011;59.912;30.300;2023-02-20T05:41:14;100101.84;;;-5.60;64.70
35918;BME280;22011;59.912;30.300;2023-02-20T05:43:41;100108.63;;;-5.57;64.13
35918;BME280;22011;59.912;30.300;2023-02-20T05:46:09;100100.84;;;-5.57;64.21
35918;BME280;22011;59.912;30.300;2023-02-20T05:48:38;100108.41;;;-5.53;64.32
35918;BME280;22011;59.912;30.300;2023-02-20T05:51:05;100103.97;;;-5.51;64.13
35918;BME280;22011;59.912;30.300;2023-02-20T05:53:33;100096.88;;;-5.47;64.26
35918;BME280;22011;59.912;30.300;2023-02-20T05:56:02;100091.72;;;-5.32;64.09
35918;BME280;22011;59.912;30.300;2023-02-20T05:58:29;100086.50;;;-5.32;63.74
35918;BME280;22011;59.912;30.300;2023-02-20T06:00:57;100087.34;;;-5.31;64.34
35918;BME280;22011;59.912;30.300;2023-02-20T06:03:24;100094.38;;;-5.33;63.91
35918;BME280;22011;59.912;30.300;2023-02-20T06:05:53;100082.25;;;-5.33;64.07
35918;BME280;22011;59.912;30.300;2023-02-20T06:08:22;100088.44;;;-5.35;64.33
35918;BME280;22011;59.912;30.300;2023-02-20T06:10:49;100086.91;;;-5.39;64.29
35918;BME280;22011;59.912;30.300;2023-02-20T06:13:17;100086.16;;;-5.41;64.68
35918;BME280;22011;59.912;30.300;2023-02-20T06:15:44;100080.41;;;-5.31;64.25
35918;BME280;22011;59.912;30.300;2023-02-20T06:18:12;100069.00;;;-5.28;63.65
35918;BME280;22011;59.912;30.300;2023-02-20T06:20:39;100065.50;;;-5.27;64.26
35918;BME280;22011;59.912;30.300;2023-02-20T06:23:08;100060.06;;;-5.22;63.74
35918;BME280;22011;59.912;30.300;2023-02-20T06:25:36;100053.03;;;-5.20;63.61
35918;BME280;22011;59.912;30.300;2023-02-20T06:28:03;100056.34;;;-5.18;63.68
35918;BME280;22011;59.912;30.300;2023-02-20T06:30:31;100050.50;;;-5.22;63.91
35918;BME280;22011;59.912;30.300;2023-02-20T06:32:58;100048.16;;;-5.27;63.60
35918;BME280;22011;59.912;30.300;2023-02-20T06:35:26;100041.22;;;-5.26;63.80
35918;BME280;22011;59.912;30.300;2023-02-20T06:37:53;100046.47;;;-5.28;63.54
35918;BME280;22011;59.912;30.300;2023-02-20T06:40:22;100045.63;;;-5.28;63.62
35918;BME280;22011;59.912;30.300;2023-02-20T06:42:50;100038.84;;;-5.31;63.55
35918;BME280;22011;59.912;30.300;2023-02-20T06:45:17;100043.97;;;-5.29;64.10
35918;BME280;22011;59.912;30.300;2023-02-20T06:47:45;100051.59;;;-5.26;63.79
35918;BME280;22011;59.912;30.300;2023-02-20T06:50:12;100041.44;;;-5.31;63.46
35918;BME280;22011;59.912;30.300;2023-02-20T06:52:40;100034.16;;;-5.40;63.45
35918;BME280;22011;59.912;30.300;2023-02-20T06:55:07;100024.59;;;-5.39;63.29
35918;BME280;22011;59.912;30.300;2023-02-20T06:57:36;100025.63;;;-5.42;63.49
35918;BME280;22011;59.912;30.300;2023-02-20T07:00:06;100033.22;;;-5.39;64.04
35918;BME280;22011;59.912;30.300;2023-02-20T07:02:34;100030.41;;;-5.34;64.55
35918;BME280;22011;59.912;30.300;2023-02-20T07:05:02;100031.16;;;-5.32;64.72
35918;BME280;22011;59.912;30.300;2023-02-20T07:07:30;100025.38;;;-5.37;64.65
35918;BME280;22011;59.912;30.300;2023-02-20T07:09:57;100028.63;;;-5.49;64.17
35918;BME280;22011;59.912;30.300;2023-02-20T07:12:28;100023.59;;;-5.52;64.00
35918;BME280;22011;59.912;30.300;2023-02-20T07:14:58;100019.91;;;-5.48;64.30
35918;BME280;22011;59.912;30.300;2023-02-20T07:17:25;100024.34;;;-5.50;64.73
35918;BME280;22011;59.912;30.300;2023-02-20T07:19:53;100031.06;;;-5.46;63.98
35918;BME280;22011;59.912;30.300;2023-02-20T07:22:20;100017.50;;;-5.36;63.80
35918;BME280;22011;59.912;30.300;2023-02-20T07:24:49;100016.16;;;-5.27;63.20
35918;BME280;22011;59.912;30.300;2023-02-20T07:27:17;100020.44;;;-5.26;63.38
35918;BME280;22011;59.912;30.300;2023-02-20T07:29:45;100012.47;;;-5.23;63.10
35918;BME280;22011;59.912;30.300;2023-02-20T07:32:15;100014.91;;;-5.20;63.51
35918;BME280;22011;59.912;30.300;2023-02-20T07:34:46;100015.91;;;-5.22;63.38
35918;BME280;22011;59.912;30.300;2023-02-20T07:37:14;100017.59;;;-5.21;62.98
35918;BME280;22011;59.912;30.300;2023-02-20T07:39:42;100024.53;;;-5.22;63.27
35918;BME280;22011;59.912;30.300;2023-02-20T07:42:10;100019.69;;;-5.28;63.26
35918;BME280;22011;59.912;30.300;2023-02-20T07:44:58;100015.41;;;-5.29;63.67
35918;BME280;22011;59.912;30.300;2023-02-20T07:47:27;100009.72;;;-5.20;64.26
35918;BME280;22011;59.912;30.300;2023-02-20T07:49:54;100008.59;;;-5.16;63.58
35918;BME280;22011;59.912;30.300;2023-02-20T07:52:22;100010.75;;;-5.08;63.90
35918;BME280;22011;59.912;30.300;2023-02-20T07:54:50;100006.41;;;-5.08;63.15
35918;BME280;22011;59.912;30.300;2023-02-20T07:57:17;99992.31;;;-5.04;63.82
35918;BME280;22011;59.912;30.300;2023-02-20T07:59:45;99999.28;;;-5.04;64.04
35918;BME280;22011;59.912;30.300;2023-02-20T08:02:12;99995.84;;;-5.05;64.14
35918;BME280;22011;59.912;30.300;2023-02-20T08:04:42;99991.31;;;-5.01;63.89
35918;BME280;22011;59.912;30.300;2023-02-20T08:07:09;99985.28;;;-5.02;62.91
35918;BME280;22011;59.912;30.300;2023-02-20T08:09:37;99986.88;;;-4.99;63.63
35918;BME280;22011;59.912;30.300;2023-02-20T08:12:05;99990.06;;;-4.94;62.87
35918;BME280;22011;59.912;30.300;2023-02-20T08:14:32;99984.59;;;-4.89;62.42
35918;BME280;22011;59.912;30.300;2023-02-20T08:17:00;99984.19;;;-4.98;62.60
35918;BME280;22011;59.912;30.300;2023-02-20T08:19:27;99976.22;;;-4.95;63.25
35918;BME280;22011;59.912;30.300;2023-02-20T08:21:56;99968.53;;;-4.96;63.63
35918;BME280;22011;59.912;30.300;2023-02-20T08:24:24;99974.38;;;-4.93;63.71
35918;BME280;22011;59.912;30.300;2023-02-20T08:26:51;99977.56;;;-4.87;64.02
35918;BME280;22011;59.912;30.300;2023-02-20T08:29:19;99977.03;;;-4.78;64.16
35918;BME280;22011;59.912;30.300;2023-02-20T08:31:46;99982.97;;;-4.76;63.13
35918;BME280;22011;59.912;30.300;2023-02-20T08:34:14;99979.63;;;-4.78;62.38
35918;BME280;22011;59.912;30.300;2023-02-20T08:36:41;99970.16;;;-4.79;62.42
35918;BME280;22011;59.912;30.300;2023-02-20T08:39:10;99968.31;;;-4.77;62.23
35918;BME280;22011;59.912;30.300;2023-02-20T08:41:41;99959.06;;;-4.67;62.47
35918;BME280;22011;59.912;30.300;2023-02-20T08:44:09;99952.75;;;-4.63;61.77
35918;BME280;22011;59.912;30.300;2023-02-20T08:46:37;99955.09;;;-4.58;61.49
35918;BME280;22011;59.912;30.300;2023-02-20T08:49:04;99953.69;;;-4.64;61.02
35918;BME280;22011;59.912;30.300;2023-02-20T08:51:32;99949.50;;;-4.67;61.73
35918;BME280;22011;59.912;30.300;2023-02-20T08:53:59;99953.59;;;-4.63;61.74
35918;BME280;22011;59.912;30.300;2023-02-20T08:56:28;99953.50;;;-4.61;61.90
35918;BME280;22011;59.912;30.300;2023-02-20T08:58:56;99954.91;;;-4.55;62.43
35918;BME280;22011;59.912;30.300;2023-02-20T09:01:23;99946.84;;;-4.51;62.60
35918;BME280;22011;59.912;30.300;2023-02-20T09:03:51;99953.47;;;-4.45;61.54
35918;BME280;22011;59.912;30.300;2023-02-20T09:06:18;99945.22;;;-4.38;61.20
35918;BME280;22011;59.912;30.300;2023-02-20T09:08:46;99942.69;;;-4.39;61.72
35918;BME280;22011;59.912;30.300;2023-02-20T09:11:13;99936.56;;;-4.38;62.12
35918;BME280;22011;59.912;30.300;2023-02-20T09:13:43;99942.34;;;-4.33;62.35
35918;BME280;22011;59.912;30.300;2023-02-20T09:16:12;99936.28;;;-4.34;62.56
35918;BME280;22011;59.912;30.300;2023-02-20T09:18:40;99933.41;;;-4.29;62.31
35918;BME280;22011;59.912;30.300;2023-02-20T09:21:08;99926.53;;;-4.30;61.41
35918;BME280;22011;59.912;30.300;2023-02-20T09:23:36;99924.50;;;-4.25;61.11
35918;BME280;22011;59.912;30.300;2023-02-20T09:26:04;99924.22;;;-4.20;61.04
35918;BME280;22011;59.912;30.300;2023-02-20T09:28:31;99920.69;;;-4.19;60.69
35918;BME280;22011;59.912;30.300;2023-02-20T09:31:00;99916.78;;;-4.12;60.60
35918;BME280;22011;59.912;30.300;2023-02-20T09:33:29;99921.69;;;-4.08;61.50
35918;BME280;22011;59.912;30.300;2023-02-20T09:35:56;99920.84;;;-4.08;60.27
35918;BME280;22011;59.912;30.300;2023-02-20T09:38:24;99908.78;;;-4.09;60.73
35918;BME280;22011;59.912;30.300;2023-02-20T09:40:55;99916.03;;;-4.14;60.05
35918;BME280;22011;59.912;30.300;2023-02-20T09:43:32;99903.75;;;-4.12;61.66
35918;BME280;22011;59.912;30.300;2023-02-20T09:46:08;99896.88;;;-4.13;61.71
35918;BME280;22011;59.912;30.300;2023-02-20T09:48:45;99898.56;;;-4.12;62.24
35918;BME280;22011;59.912;30.300;2023-02-20T09:51:16;99890.94;;;-4.15;61.25
35918;BME280;22011;59.912;30.300;2023-02-20T09:53:52;99893.63;;;-4.03;61.16
35918;BME280;22011;59.912;30.300;2023-02-20T09:56:26;99890.00;;;-4.00;60.56
35918;BME280;22011;59.912;30.300;2023-02-20T09:58:57;99886.28;;;-3.96;61.57
35918;BME280;22011;59.912;30.300;2023-02-20T10:01:32;99875.50;;;-3.90;61.69
35918;BME280;22011;59.912;30.300;2023-02-20T10:04:03;99871.13;;;-3.89;61.93
35918;BME280;22011;59.912;30.300;2023-02-20T10:06:33;99883.31;;;-3.90;60.83
35918;BME280;22011;59.912;30.300;2023-02-20T10:09:03;99887.69;;;-3.90;60.86
35918;BME280;22011;59.912;30.300;2023-02-20T10:11:48;99876.97;;;-3.72;62.08
35918;BME280;22011;59.912;30.300;2023-02-20T10:14:33;99870.53;;;-3.66;61.65
35918;BME280;22011;59.912;30.300;2023-02-20T10:17:12;99856.28;;;-3.60;61.04
35918;BME280;22011;59.912;30.300;2023-02-20T10:19:48;99865.88;;;-3.61;62.17
35918;BME280;22011;59.912;30.300;2023-02-20T10:22:19;99863.56;;;-3.66;60.74
35918;BME280;22011;59.912;30.300;2023-02-20T10:24:58;99869.84;;;-3.55;60.89
35918;BME280;22011;59.912;30.300;2023-02-20T10:27:33;99852.44;;;-3.28;61.08
35918;BME280;22011;59.912;30.300;2023-02-20T10:30:05;99843.75;;;-3.41;59.75
35918;BME280;22011;59.912;30.300;2023-02-20T10:32:40;99850.25;;;-3.34;60.04
35918;BME280;22011;59.912;30.300;2023-02-20T10:35:10;99842.53;;;-3.36;59.83
35918;BME280;22011;59.912;30.300;2023-02-20T10:37:41;99837.03;;;-3.31;59.77
35918;BME280;22011;59.912;30.300;2023-02-20T10:40:15;99834.94;;;-3.26;59.66
35918;BME280;22011;59.912;30.300;2023-02-20T10:42:49;99835.69;;;-3.24;59.78
35918;BME280;22011;59.912;30.300;2023-02-20T10:45:25;99835.38;;;-3.19;60.89
35918;BME280;22011;59.912;30.300;2023-02-20T10:48:03;99828.19;;;-3.16;60.84
35918;BME280;22011;59.912;30.300;2023-02-20T10:50:36;99820.28;;;-3.14;60.49
35918;BME280;22011;59.912;30.300;2023-02-20T10:53:12;99812.38;;;-3.13;61.39
35918;BME280;22011;59.912;30.300;2023-02-20T10:55:47;99810.25;;;-3.08;61.58
35918;BME280;22011;59.912;30.300;2023-02-20T10:58:19;99805.06;;;-3.08;60.37
35918;BME280;22011;59.912;30.300;2023-02-20T11:00:53;99800.56;;;-3.06;60.79
35918;BME280;22011;59.912;30.300;2023-02-20T11:03:25;99789.41;;;-3.08;60.61
35918;BME280;22011;59.912;30.300;2023-02-20T11:05:58;99797.56;;;-3.00;61.33
35918;BME280;22011;59.912;30.300;2023-02-20T11:08:28;99796.19;;;-3.05;60.84
35918;BME280;22011;59.912;30.300;2023-02-20T11:10:59;99790.25;;;-2.94;60.18
35918;BME280;22011;59.912;30.300;2023-02-20T11:13:31;99783.16;;;-3.05;60.87
35918;BME280;22011;59.912;30.300;2023-02-20T11:16:00;99788.91;;;-3.00;61.78
35918;BME280;22011;59.912;30.300;2023-02-20T11:18:33;99784.63;;;-2.88;61.58
35918;BME280;22011;59.912;30.300;2023-02-20T11:21:02;99782.97;;;-2.89;60.37
35918;BME280;22011;59.912;30.300;2023-02-20T11:23:38;99781.72;;;-2.84;60.59
35918;BME280;22011;59.912;30.300;2023-02-20T11:26:25;99770.97;;;-2.79;60.82
35918;BME280;22011;59.912;30.300;2023-02-20T11:29:02;99772.75;;;-2.92;61.34
35918;BME280;22011;59.912;30.300;2023-02-20T11:31:30;99771.91;;;-3.06;60.93
35918;BME280;22011;59.912;30.300;2023-02-20T11:34:01;99765.44;;;-3.00;60.76
35918;BME280;22011;59.912;30.300;2023-02-20T11:36:36;99762.75;;;-2.99;60.45
35918;BME280;22011;59.912;30.300;2023-02-20T11:39:24;99763.88;;;-3.03;61.25
35918;BME280;22011;59.912;30.300;2023-02-20T11:42:10;99761.28;;;-3.03;61.80
35918;BME280;22011;59.912;30.300;2023-02-20T11:44:38;99753.13;;;-3.11;61.61
35918;BME280;22011;59.912;30.300;2023-02-20T11:47:25;99756.78;;;-3.01;63.25
35918;BME280;22011;59.912;30.300;2023-02-20T11:50:13;99747.50;;;-3.05;63.56
35918;BME280;22011;59.912;30.300;2023-02-20T11:53:00;99738.44;;;-2.99;62.55
35918;BME280;22011;59.912;30.300;2023-02-20T11:55:30;99740.84;;;-3.09;62.09
35918;BME280;22011;59.912;30.300;2023-02-20T11:57:58;99728.44;;;-3.05;61.81
35918;BME280;22011;59.912;30.300;2023-02-20T12:00:27;99731.47;;;-2.99;61.92
35918;BME280;22011;59.912;30.300;2023-02-20T12:03:09;99733.13;;;-2.85;62.04
35918;BME280;22011;59.912;30.300;2023-02-20T12:05:41;99731.97;;;-2.81;61.27
35918;BME280;22011;59.912;30.300;2023-02-20T12:08:28;99730.31;;;-2.69;61.34
35918;BME280;22011;59.912;30.300;2023-02-20T12:10:59;99721.75;;;-2.84;61.82
35918;BME280;22011;59.912;30.300;2023-02-20T12:13:30;99729.59;;;-2.84;61.93
35918;BME280;22011;59.912;30.300;2023-02-20T12:16:19;99726.25;;;-2.73;62.61
35918;BME280;22011;59.912;30.300;2023-02-20T12:18:56;99713.63;;;-2.79;61.93
35918;BME280;22011;59.912;30.300;2023-02-20T12:21:42;99714.34;;;-2.77;61.80
35918;BME280;22011;59.912;30.300;2023-02-20T12:24:29;99705.28;;;-2.72;61.66
35918;BME280;22011;59.912;30.300;2023-02-20T12:27:02;99705.59;;;-2.76;61.43
35918;BME280;22011;59.912;30.300;2023-02-20T12:29:40;99703.06;;;-2.65;61.10
35918;BME280;22011;59.912;30.300;2023-02-20T12:32:30;99706.63;;;-2.66;61.82
35918;BME280;22011;59.912;30.300;2023-02-20T12:35:26;99703.28;;;-2.68;61.69
35918;BME280;22011;59.912;30.300;2023-02-20T12:38:14;99693.06;;;-2.71;61.82
35918;BME280;22011;59.912;30.300;2023-02-20T12:40:56;99686.19;;;-2.72;62.03
35918;BME280;22011;59.912;30.300;2023-02-20T12:43:34;99683.69;;;-2.74;61.99
35918;BME280;22011;59.912;30.300;2023-02-20T12:46:10;99683.91;;;-2.77;62.05
35918;BME280;22011;59.912;30.300;2023-02-20T12:48:54;99679.63;;;-2.78;61.62
35918;BME280;22011;59.912;30.300;2023-02-20T12:51:31;99677.34;;;-2.82;61.43
35918;BME280;22011;59.912;30.300;2023-02-20T12:54:15;99675.34;;;-2.79;61.82
35918;BME280;22011;59.912;30.300;2023-02-20T12:56:55;99675.69;;;-2.83;62.05
35918;BME280;22011;59.912;30.300;2023-02-20T12:59:27;99671.63;;;-2.87;62.17
35918;BME280;22011;59.912;30.300;2023-02-20T13:02:02;99670.25;;;-2.80;63.31
35918;BME280;22011;59.912;30.300;2023-02-20T13:04:41;99671.16;;;-2.69;62.60
35918;BME280;22011;59.912;30.300;2023-02-20T13:07:16;99659.78;;;-2.68;63.01
35918;BME280;22011;59.912;30.300;2023-02-20T13:09:53;99663.53;;;-2.59;62.39
35918;BME280;22011;59.912;30.300;2023-02-20T13:12:23;99647.69;;;-2.69;62.55
35918;BME280;22011;59.912;30.300;2023-02-20T13:14:57;99646.13;;;-2.71;63.18